createdAt,value
2019-04-25T00:00:56.822Z,12.78
2019-04-25T00:01:57.435Z,12.74
2019-04-25T00:02:56.832Z,12.75
2019-04-25T00:03:56.821Z,12.74
2019-04-25T00:04:56.853Z,12.75
2019-04-25T00:05:56.863Z,12.71
2019-04-25T00:06:56.824Z,12.78
2019-04-25T00:07:56.822Z,12.69
2019-04-25T00:08:56.821Z,12.75
2019-04-25T00:09:56.846Z,12.75
2019-04-25T00:10:56.830Z,12.69
2019-04-25T00:11:58.380Z,12.62
2019-04-25T00:12:56.915Z,12.66
2019-04-25T00:13:57.074Z,12.62
2019-04-25T00:14:56.844Z,12.62
2019-04-25T00:15:56.815Z,12.70
2019-04-25T00:16:56.820Z,12.69
2019-04-25T00:17:56.816Z,12.69
2019-04-25T00:18:56.817Z,12.69
2019-04-25T00:19:56.919Z,12.66
2019-04-25T00:20:56.815Z,12.67
2019-04-25T00:21:56.813Z,12.64
2019-04-25T00:22:56.810Z,12.62
2019-04-25T00:23:56.858Z,12.66
2019-04-25T00:24:56.813Z,12.74
2019-04-25T00:25:56.840Z,12.77
2019-04-25T00:26:56.811Z,12.87
2019-04-25T00:27:56.809Z,12.81
2019-04-25T00:28:56.809Z,12.79
2019-04-25T00:29:56.807Z,12.81
2019-04-25T00:30:56.835Z,12.89
2019-04-25T00:31:56.812Z,12.92
2019-04-25T00:32:56.912Z,12.92
2019-04-25T00:33:56.807Z,12.88
2019-04-25T00:34:56.806Z,12.89
2019-04-25T00:35:56.833Z,12.96
2019-04-25T00:36:56.808Z,12.96
2019-04-25T00:37:56.807Z,12.93
2019-04-25T00:38:56.803Z,12.79
2019-04-25T00:39:56.807Z,12.84
2019-04-25T00:40:56.830Z,12.75
2019-04-25T00:41:56.804Z,12.78
2019-04-25T00:42:56.802Z,12.75
2019-04-25T00:43:57.006Z,12.66
2019-04-25T00:44:56.802Z,12.66
2019-04-25T00:45:56.832Z,12.48
2019-04-25T00:46:56.883Z,12.52
2019-04-25T00:47:56.803Z,12.42
2019-04-25T00:48:56.799Z,12.39
2019-04-25T00:49:56.803Z,12.34
2019-04-25T00:50:56.822Z,12.21
2019-04-25T00:51:56.797Z,12.15
2019-04-25T00:52:56.801Z,12.06
2019-04-25T00:53:56.798Z,11.97
2019-04-25T00:54:56.796Z,11.94
2019-04-25T00:55:56.821Z,12.06
2019-04-25T00:56:56.794Z,12.05
2019-04-25T00:57:56.796Z,11.96
2019-04-25T00:58:56.793Z,11.99
2019-04-25T00:59:56.792Z,11.94
2019-04-25T01:00:56.987Z,11.82
2019-04-25T01:01:56.792Z,11.71
2019-04-25T01:02:56.790Z,11.53
2019-04-25T01:03:56.812Z,11.34
2019-04-25T01:04:56.789Z,11.24
2019-04-25T01:05:56.791Z,11.21
2019-04-25T01:06:56.819Z,11.11
2019-04-25T01:07:56.786Z,10.96
2019-04-25T01:08:56.786Z,10.88
2019-04-25T01:09:56.785Z,10.68
2019-04-25T01:10:56.784Z,10.68
2019-04-25T01:11:56.809Z,10.60
2019-04-25T01:12:56.783Z,10.52
2019-04-25T01:13:56.792Z,10.42
2019-04-25T01:14:56.780Z,10.47
2019-04-25T01:15:56.783Z,10.30
2019-04-25T01:16:56.805Z,10.36
2019-04-25T01:17:56.778Z,10.28
2019-04-25T01:18:56.776Z,10.19
2019-04-25T01:19:58.015Z,10.17
2019-04-25T01:20:56.776Z,10.04
2019-04-25T01:21:56.799Z,10.06
2019-04-25T01:22:57.759Z,10.04
2019-04-25T01:23:56.774Z,10.00
2019-04-25T01:24:56.775Z,9.94
2019-04-25T01:25:56.768Z,9.94
2019-04-25T01:26:56.792Z,9.97
2019-04-25T01:27:56.764Z,9.94
2019-04-25T01:28:56.762Z,9.91
2019-04-25T01:29:56.762Z,9.83
2019-04-25T01:30:56.764Z,9.82
2019-04-25T01:31:56.787Z,9.85
2019-04-25T01:32:56.773Z,9.81
2019-04-25T01:33:56.756Z,9.79
2019-04-25T01:34:58.947Z,9.99
2019-04-25T01:35:56.934Z,10.07
2019-04-25T01:36:56.994Z,10.32
2019-04-25T01:37:57.293Z,10.47
2019-04-25T01:38:58.797Z,10.80
2019-04-25T01:39:57.280Z,11.01
2019-04-25T01:40:57.363Z,11.17
2019-04-25T01:41:57.451Z,11.25
2019-04-25T01:42:56.741Z,11.25
2019-04-25T01:43:59.401Z,11.27
2019-04-25T01:44:58.107Z,11.31
2019-04-25T01:45:56.764Z,11.41
2019-04-25T01:46:56.739Z,11.35
2019-04-25T01:47:56.762Z,11.43
2019-04-25T01:48:56.733Z,11.46
2019-04-25T01:49:56.785Z,11.49
2019-04-25T01:50:56.739Z,11.46
2019-04-25T01:51:57.454Z,11.44
2019-04-25T01:52:56.790Z,11.47
2019-04-25T01:53:56.842Z,11.53
2019-04-25T01:54:57.147Z,11.52
2019-04-25T01:56:02.760Z,11.65
2019-04-25T01:56:57.369Z,11.65
2019-04-25T01:57:57.194Z,11.65
2019-04-25T01:58:57.356Z,11.67
2019-04-25T01:59:57.483Z,11.65
2019-04-25T02:00:57.334Z,11.74
2019-04-25T02:01:56.825Z,11.70
2019-04-25T02:02:56.788Z,11.71
2019-04-25T02:03:56.974Z,11.59
2019-04-25T02:04:58.784Z,11.50
2019-04-25T02:05:57.314Z,11.53
2019-04-25T02:06:57.050Z,11.57
2019-04-25T02:07:57.030Z,11.56
2019-04-25T02:08:57.225Z,11.53
2019-04-25T02:09:57.389Z,11.53
2019-04-25T02:10:57.058Z,11.67
2019-04-25T02:11:56.875Z,11.71
2019-04-25T02:12:57.636Z,11.77
2019-04-25T02:13:56.897Z,11.74
2019-04-25T02:14:56.917Z,11.77
2019-04-25T02:15:57.177Z,11.71
2019-04-25T02:16:57.191Z,11.85
2019-04-25T02:17:59.017Z,11.71
2019-04-25T02:18:57.733Z,11.68
2019-04-25T02:19:57.088Z,11.70
2019-04-25T02:20:59.977Z,11.53
2019-04-25T02:21:56.691Z,11.46
2019-04-25T02:22:56.717Z,11.31
2019-04-25T02:23:56.712Z,11.20
2019-04-25T02:24:57.102Z,11.11
2019-04-25T02:26:08.946Z,11.02
2019-04-25T02:26:57.275Z,10.91
2019-04-25T02:27:59.955Z,11.02
2019-04-25T02:28:57.306Z,10.94
2019-04-25T02:29:57.267Z,10.84
2019-04-25T02:30:59.792Z,10.73
2019-04-25T02:32:00.100Z,10.89
2019-04-25T02:33:00.904Z,10.96
2019-04-25T02:33:57.867Z,11.11
2019-04-25T02:34:59.689Z,11.21
2019-04-25T02:35:59.358Z,11.24
2019-04-25T02:37:00.631Z,11.27
2019-04-25T02:37:59.264Z,11.28
2019-04-25T02:38:59.540Z,11.11
2019-04-25T02:39:58.873Z,11.06
2019-04-25T02:40:59.502Z,10.98
2019-04-25T02:42:00.304Z,10.88
2019-04-25T02:42:58.517Z,10.84
2019-04-25T02:44:01.351Z,10.92
2019-04-25T02:45:00.159Z,11.03
2019-04-25T02:45:58.432Z,11.07
2019-04-25T02:46:59.108Z,11.07
2019-04-25T02:47:58.508Z,11.09
2019-04-25T02:48:59.592Z,11.09
2019-04-25T02:49:58.539Z,11.01
2019-04-25T02:50:58.080Z,11.02
2019-04-25T02:51:59.250Z,11.07
2019-04-25T02:52:57.440Z,11.03
2019-04-25T02:53:57.714Z,10.95
2019-04-25T02:54:58.426Z,10.92
2019-04-25T02:55:57.747Z,10.80
2019-04-25T02:56:57.484Z,10.81
2019-04-25T02:57:58.170Z,10.88
2019-04-25T02:58:56.670Z,10.80
2019-04-25T02:59:57.518Z,10.91
2019-04-25T03:01:03.450Z,10.83
2019-04-25T03:01:57.618Z,10.86
2019-04-25T03:02:57.928Z,10.74
2019-04-25T03:03:57.948Z,10.77
2019-04-25T03:04:58.373Z,10.70
2019-04-25T03:05:57.490Z,10.65
2019-04-25T03:06:58.414Z,10.83
2019-04-25T03:07:57.770Z,10.80
2019-04-25T03:08:57.841Z,10.73
2019-04-25T03:09:58.078Z,10.70
2019-04-25T03:10:58.199Z,10.73
2019-04-25T03:11:58.217Z,10.76
2019-04-25T03:12:58.399Z,10.80
2019-04-25T03:13:57.725Z,10.74
2019-04-25T03:14:58.279Z,10.70
2019-04-25T03:15:58.474Z,10.68
2019-04-25T03:16:58.543Z,10.63
2019-04-25T03:17:57.865Z,10.53
2019-04-25T03:18:58.850Z,10.47
2019-04-25T03:19:56.612Z,10.52
2019-04-25T03:20:56.774Z,10.51
2019-04-25T03:21:56.618Z,10.46
2019-04-25T03:22:56.606Z,10.34
2019-04-25T03:23:56.644Z,10.37
2019-04-25T03:24:56.608Z,10.15
2019-04-25T03:25:56.608Z,10.19
2019-04-25T03:26:56.605Z,10.14
2019-04-25T03:27:56.602Z,10.12
2019-04-25T03:28:56.632Z,10.00
2019-04-25T03:29:56.599Z,10.06
2019-04-25T03:30:57.215Z,10.22
2019-04-25T03:31:56.592Z,10.21
2019-04-25T03:32:56.605Z,10.32
2019-04-25T03:33:56.598Z,10.39
2019-04-25T03:34:56.612Z,10.53
2019-04-25T03:35:56.597Z,10.40
2019-04-25T03:36:56.585Z,10.40
2019-04-25T03:37:56.582Z,10.39
2019-04-25T03:38:56.579Z,10.43
2019-04-25T03:39:56.605Z,10.40
2019-04-25T03:40:56.577Z,10.42
2019-04-25T03:41:56.588Z,10.44
2019-04-25T03:42:56.578Z,10.40
2019-04-25T03:43:56.570Z,10.40
2019-04-25T03:44:56.596Z,10.52
2019-04-25T03:45:56.576Z,10.51
2019-04-25T03:46:56.565Z,10.55
2019-04-25T03:47:56.565Z,10.42
2019-04-25T03:48:56.563Z,10.43
2019-04-25T03:49:56.588Z,10.44
2019-04-25T03:50:56.561Z,10.47
2019-04-25T03:51:56.559Z,10.55
2019-04-25T03:52:56.556Z,10.60
2019-04-25T03:53:56.554Z,10.63
2019-04-25T03:54:56.842Z,10.62
2019-04-25T03:55:56.556Z,10.53
2019-04-25T03:56:56.549Z,10.44
2019-04-25T03:57:56.549Z,10.36
2019-04-25T03:58:56.548Z,10.44
2019-04-25T03:59:56.571Z,10.42
2019-04-25T04:00:56.547Z,10.37
2019-04-25T04:01:56.567Z,10.37
2019-04-25T04:02:56.541Z,10.26
2019-04-25T04:03:56.538Z,10.26
2019-04-25T04:04:56.562Z,10.32
2019-04-25T04:05:56.539Z,10.26
2019-04-25T04:06:56.537Z,10.36
2019-04-25T04:07:56.532Z,10.19
2019-04-25T04:08:56.530Z,10.19
2019-04-25T04:09:56.555Z,10.15
2019-04-25T04:10:56.525Z,9.99
2019-04-25T04:11:56.743Z,9.64
2019-04-25T04:12:56.522Z,9.53
2019-04-25T04:13:56.522Z,9.32
2019-04-25T04:14:56.547Z,9.04
2019-04-25T04:15:56.524Z,9.01
2019-04-25T04:16:56.514Z,8.81
2019-04-25T04:17:56.519Z,8.93
2019-04-25T04:18:56.525Z,9.10
2019-04-25T04:19:56.540Z,9.06
2019-04-25T04:20:56.513Z,9.12
2019-04-25T04:21:56.506Z,9.06
2019-04-25T04:22:56.505Z,9.02
2019-04-25T04:23:57.251Z,9.18
2019-04-25T04:24:56.525Z,9.24
2019-04-25T04:25:56.511Z,9.38
2019-04-25T04:27:03.463Z,9.53
2019-04-25T04:27:56.496Z,9.79
2019-04-25T04:28:56.498Z,9.97
2019-04-25T04:29:56.523Z,10.30
2019-04-25T04:30:56.488Z,10.42
2019-04-25T04:31:56.486Z,10.55
2019-04-25T04:32:56.489Z,10.63
2019-04-25T04:33:56.482Z,10.77
2019-04-25T04:34:56.480Z,10.88
2019-04-25T04:35:56.504Z,11.01
2019-04-25T04:36:56.476Z,11.06
2019-04-25T04:37:56.475Z,11.13
2019-04-25T04:38:56.493Z,11.10
2019-04-25T04:39:56.472Z,11.21
2019-04-25T04:40:56.499Z,11.53
2019-04-25T04:41:56.473Z,11.70
2019-04-25T04:42:56.466Z,11.72
2019-04-25T04:43:56.470Z,11.59
2019-04-25T04:44:56.461Z,11.49
2019-04-25T04:45:56.489Z,11.44
2019-04-25T04:46:56.470Z,11.34
2019-04-25T04:47:56.461Z,11.43
2019-04-25T04:48:56.458Z,11.53
2019-04-25T04:49:56.455Z,11.46
2019-04-25T04:50:56.908Z,11.54
2019-04-25T04:51:57.173Z,11.54
2019-04-25T04:52:56.451Z,11.74
2019-04-25T04:53:56.454Z,11.71
2019-04-25T04:55:05.366Z,11.86
2019-04-25T04:55:56.480Z,11.77
2019-04-25T04:56:56.450Z,11.75
2019-04-25T04:57:56.447Z,11.78
2019-04-25T04:58:56.446Z,11.82
2019-04-25T04:59:56.444Z,11.82
2019-04-25T05:00:56.468Z,11.93
2019-04-25T05:01:56.444Z,12.12
2019-04-25T05:02:56.458Z,12.12
2019-04-25T05:03:56.445Z,12.49
2019-04-25T05:04:56.443Z,12.59
2019-04-25T05:05:56.466Z,12.95
2019-04-25T05:06:56.437Z,12.81
2019-04-25T05:07:56.440Z,12.99
2019-04-25T05:08:56.437Z,13.40
2019-04-25T05:09:56.437Z,13.44
2019-04-25T05:10:57.435Z,13.59
2019-04-25T05:11:56.436Z,13.51
2019-04-25T05:12:56.428Z,13.94
2019-04-25T05:13:56.476Z,14.04
2019-04-25T05:14:56.431Z,14.24
2019-04-25T05:15:56.459Z,14.47
2019-04-25T05:16:56.429Z,14.17
2019-04-25T05:17:56.430Z,13.83
2019-04-25T05:18:56.429Z,13.76
2019-04-25T05:19:56.426Z,13.56
2019-04-25T05:20:56.453Z,13.38
2019-04-25T05:21:56.428Z,13.58
2019-04-25T05:22:56.429Z,13.77
2019-04-25T05:23:56.543Z,13.80
2019-04-25T05:24:56.550Z,14.02
2019-04-25T05:25:56.458Z,14.06
2019-04-25T05:26:56.426Z,13.91
2019-04-25T05:28:02.536Z,13.96
2019-04-25T05:28:57.057Z,13.89
2019-04-25T05:29:56.476Z,13.56
2019-04-25T05:30:56.477Z,13.62
2019-04-25T05:31:56.429Z,13.69
2019-04-25T05:32:56.430Z,13.67
2019-04-25T05:33:56.443Z,13.80
2019-04-25T05:34:56.438Z,13.73
2019-04-25T05:35:56.455Z,13.79
2019-04-25T05:36:56.427Z,13.63
2019-04-25T05:37:56.433Z,13.44
2019-04-25T05:38:56.436Z,13.25
2019-04-25T05:39:56.431Z,13.32
2019-04-25T05:40:56.468Z,13.29
2019-04-25T05:41:56.462Z,12.99
2019-04-25T05:42:56.430Z,13.00
2019-04-25T05:43:56.430Z,13.22
2019-04-25T05:44:56.557Z,13.11
2019-04-25T05:45:56.541Z,12.99
2019-04-25T05:46:56.534Z,13.07
2019-04-25T05:47:56.520Z,13.07
2019-04-25T05:48:56.433Z,13.07
2019-04-25T05:49:56.472Z,13.06
2019-04-25T05:50:56.433Z,13.41
2019-04-25T05:51:56.472Z,13.44
2019-04-25T05:52:56.450Z,13.69
2019-04-25T05:53:56.439Z,13.88
2019-04-25T05:54:56.441Z,14.17
2019-04-25T05:55:56.505Z,13.95
2019-04-25T05:56:59.464Z,14.06
2019-04-25T05:57:56.663Z,13.99
2019-04-25T05:58:56.578Z,14.12
2019-04-25T05:59:56.436Z,13.98
2019-04-25T06:00:57.067Z,14.07
2019-04-25T06:01:56.467Z,14.19
2019-04-25T06:02:56.438Z,14.52
2019-04-25T06:03:56.437Z,14.20
2019-04-25T06:04:56.442Z,14.54
2019-04-25T06:05:56.443Z,14.86
2019-04-25T06:06:56.467Z,14.64
2019-04-25T06:07:56.440Z,14.50
2019-04-25T06:08:56.445Z,14.53
2019-04-25T06:09:56.442Z,14.46
2019-04-25T06:10:56.445Z,14.75
2019-04-25T06:11:56.472Z,14.81
2019-04-25T06:12:56.446Z,15.39
2019-04-25T06:13:56.451Z,15.45
2019-04-25T06:14:57.067Z,15.42
2019-04-25T06:15:56.448Z,15.31
2019-04-25T06:16:56.474Z,15.35
2019-04-25T06:17:56.456Z,15.68
2019-04-25T06:18:56.474Z,15.74
2019-04-25T06:19:56.452Z,15.63
2019-04-25T06:20:56.459Z,15.86
2019-04-25T06:21:56.484Z,16.11
2019-04-25T06:22:56.456Z,16.04
2019-04-25T06:23:56.459Z,16.20
2019-04-25T06:24:56.471Z,16.48
2019-04-25T06:25:56.477Z,16.71
2019-04-25T06:26:56.488Z,16.14
2019-04-25T06:27:59.089Z,16.45
2019-04-25T06:28:59.546Z,16.59
2019-04-25T06:29:58.979Z,16.88
2019-04-25T06:30:56.471Z,17.32
2019-04-25T06:32:06.036Z,17.32
2019-04-25T06:32:56.475Z,17.23
2019-04-25T06:33:56.480Z,16.63
2019-04-25T06:34:56.561Z,16.20
2019-04-25T06:35:56.966Z,16.31
2019-04-25T06:36:56.513Z,16.60
2019-04-25T06:37:56.489Z,17.25
2019-04-25T06:38:56.489Z,17.33
2019-04-25T06:39:56.493Z,16.92
2019-04-25T06:40:56.499Z,16.78
2019-04-25T06:41:56.506Z,16.27
2019-04-25T06:42:56.534Z,16.42
2019-04-25T06:43:56.503Z,16.40
2019-04-25T06:44:56.508Z,16.44
2019-04-25T06:45:56.513Z,16.68
2019-04-25T06:46:56.511Z,16.35
2019-04-25T06:47:56.592Z,16.33
2019-04-25T06:48:56.519Z,16.22
2019-04-25T06:49:56.523Z,16.42
2019-04-25T06:50:56.524Z,16.92
2019-04-25T06:51:56.527Z,17.06
2019-04-25T06:52:56.566Z,17.55
2019-04-25T06:53:56.534Z,18.00
2019-04-25T06:54:56.539Z,18.03
2019-04-25T06:55:56.547Z,17.85
2019-04-25T06:56:56.541Z,18.09
2019-04-25T06:58:08.923Z,18.07
2019-04-25T06:58:56.548Z,17.69
2019-04-25T06:59:56.551Z,17.92
2019-04-25T07:01:00.563Z,18.07
2019-04-25T07:01:56.560Z,18.39
2019-04-25T07:02:56.591Z,18.57
2019-04-25T07:03:56.566Z,18.50
2019-04-25T07:04:56.573Z,18.39
2019-04-25T07:05:56.577Z,18.52
2019-04-25T07:06:56.576Z,18.46
2019-04-25T07:07:56.642Z,17.74
2019-04-25T07:08:56.584Z,17.53
2019-04-25T07:09:56.624Z,17.43
2019-04-25T07:10:56.601Z,17.33
2019-04-25T07:11:56.599Z,17.74
2019-04-25T07:12:56.631Z,17.99
2019-04-25T07:13:56.604Z,17.41
2019-04-25T07:14:56.611Z,17.32
2019-04-25T07:15:56.612Z,17.66
2019-04-25T07:16:56.617Z,18.28
2019-04-25T07:17:56.646Z,18.49
2019-04-25T07:18:56.626Z,18.72
2019-04-25T07:19:56.626Z,18.76
2019-04-25T07:20:56.633Z,18.61
2019-04-25T07:21:56.636Z,18.74
2019-04-25T07:22:56.667Z,18.80
2019-04-25T07:23:56.644Z,18.74
2019-04-25T07:24:56.648Z,19.01
2019-04-25T07:25:56.660Z,19.38
2019-04-25T07:26:56.657Z,19.33
2019-04-25T07:27:56.689Z,19.01
2019-04-25T07:28:56.684Z,18.74
2019-04-25T07:29:56.676Z,19.14
2019-04-25T07:30:56.676Z,19.73
2019-04-25T07:31:56.684Z,20.21
2019-04-25T07:32:56.714Z,20.91
2019-04-25T07:33:56.693Z,20.77
2019-04-25T07:34:56.751Z,20.76
2019-04-25T07:35:57.150Z,20.61
2019-04-25T07:36:56.711Z,20.46
2019-04-25T07:37:56.741Z,20.51
2019-04-25T07:39:05.847Z,20.68
2019-04-25T07:39:56.730Z,20.38
2019-04-25T07:40:56.737Z,20.38
2019-04-25T07:41:56.741Z,20.41
2019-04-25T07:42:56.749Z,20.74
2019-04-25T07:43:56.780Z,19.88
2019-04-25T07:44:56.793Z,19.21
2019-04-25T07:45:56.767Z,19.15
2019-04-25T07:46:56.774Z,19.58
2019-04-25T07:47:56.835Z,19.66
2019-04-25T07:48:56.812Z,19.80
2019-04-25T07:49:56.797Z,19.75
2019-04-25T07:50:56.803Z,19.76
2019-04-25T07:51:56.809Z,19.66
2019-04-25T07:52:56.817Z,20.06
2019-04-25T07:53:56.857Z,20.34
2019-04-25T07:54:56.830Z,20.65
2019-04-25T07:55:56.837Z,21.42
2019-04-25T07:56:56.847Z,22.02
2019-04-25T07:57:56.856Z,21.54
2019-04-25T07:58:56.888Z,20.72
2019-04-25T07:59:56.869Z,20.80
2019-04-25T08:00:56.878Z,21.54
2019-04-25T08:01:56.886Z,20.71
2019-04-25T08:02:56.897Z,20.09
2019-04-25T08:03:56.928Z,20.16
2019-04-25T08:04:56.908Z,20.20
2019-04-25T08:05:56.924Z,19.57
2019-04-25T08:06:56.931Z,19.73
2019-04-25T08:07:56.938Z,20.25
2019-04-25T08:08:56.984Z,20.72
2019-04-25T08:09:56.954Z,19.84
2019-04-25T08:10:56.965Z,19.53
2019-04-25T08:11:56.974Z,19.98
2019-04-25T08:12:56.980Z,20.39
2019-04-25T08:13:57.014Z,20.58
2019-04-25T08:14:57.105Z,20.24
2019-04-25T08:15:57.007Z,20.13
2019-04-25T08:16:57.019Z,20.02
2019-04-25T08:17:57.027Z,20.59
2019-04-25T08:18:57.081Z,20.87
2019-04-25T08:19:57.048Z,20.56
2019-04-25T08:20:57.058Z,20.39
2019-04-25T08:21:57.066Z,20.68
2019-04-25T08:22:59.042Z,20.35
2019-04-25T08:23:57.111Z,20.15
2019-04-25T08:24:57.125Z,19.98
2019-04-25T08:25:57.104Z,20.46
2019-04-25T08:26:57.112Z,20.43
2019-04-25T08:27:57.123Z,20.25
2019-04-25T08:28:57.837Z,20.41
2019-04-25T08:29:57.169Z,20.46
2019-04-25T08:30:57.153Z,20.21
2019-04-25T08:31:57.161Z,20.43
2019-04-25T08:32:57.173Z,21.13
2019-04-25T08:33:57.184Z,21.32
2019-04-25T08:34:57.218Z,21.23
2019-04-25T08:36:08.244Z,21.30
2019-04-25T08:36:57.219Z,21.17
2019-04-25T08:37:57.224Z,21.45
2019-04-25T08:38:57.237Z,21.11
2019-04-25T08:39:57.271Z,21.46
2019-04-25T08:40:57.257Z,21.46
2019-04-25T08:41:57.266Z,21.13
2019-04-25T08:42:57.277Z,21.09
2019-04-25T08:43:57.285Z,21.53
2019-04-25T08:44:58.108Z,22.14
2019-04-25T08:45:57.310Z,22.10
2019-04-25T08:46:57.319Z,21.54
2019-04-25T08:47:57.331Z,20.91
2019-04-25T08:48:57.368Z,20.81
2019-04-25T08:49:57.608Z,21.05
2019-04-25T08:50:57.361Z,20.69
2019-04-25T08:51:57.776Z,20.80
2019-04-25T08:52:57.402Z,20.51
2019-04-25T08:53:57.396Z,20.39
2019-04-25T08:54:58.081Z,20.27
2019-04-25T08:55:57.456Z,20.06
2019-04-25T08:56:57.435Z,20.18
2019-04-25T08:57:57.442Z,20.49
2019-04-25T08:59:05.533Z,20.51
2019-04-25T08:59:57.490Z,20.77
2019-04-25T09:01:00.913Z,20.51
2019-04-25T09:01:57.485Z,20.89
2019-04-25T09:02:57.509Z,21.14
2019-04-25T09:03:57.506Z,20.98
2019-04-25T09:04:57.546Z,20.72
2019-04-25T09:05:57.579Z,20.80
2019-04-25T09:06:57.547Z,21.01
2019-04-25T09:07:57.550Z,21.13
2019-04-25T09:08:57.560Z,20.87
2019-04-25T09:09:57.603Z,21.20
2019-04-25T09:10:57.584Z,21.75
2019-04-25T09:11:57.597Z,22.01
2019-04-25T09:12:57.605Z,22.27
2019-04-25T09:13:57.617Z,22.35
2019-04-25T09:14:57.657Z,22.27
2019-04-25T09:15:57.642Z,22.16
2019-04-25T09:16:57.650Z,21.78
2019-04-25T09:17:57.664Z,21.78
2019-04-25T09:18:57.672Z,21.48
2019-04-25T09:19:57.717Z,21.60
2019-04-25T09:20:57.700Z,21.16
2019-04-25T09:21:57.717Z,20.95
2019-04-25T09:22:57.734Z,21.32
2019-04-25T09:23:57.739Z,21.24
2019-04-25T09:24:57.773Z,21.23
2019-04-25T09:25:57.771Z,21.24
2019-04-25T09:26:57.775Z,21.51
2019-04-25T09:27:57.783Z,21.51
2019-04-25T09:28:57.795Z,21.61
2019-04-25T09:29:57.889Z,21.46
2019-04-25T09:30:57.816Z,20.91
2019-04-25T09:31:57.831Z,21.42
2019-04-25T09:32:57.851Z,21.60
2019-04-25T09:33:57.856Z,21.38
2019-04-25T09:34:57.873Z,21.44
2019-04-25T09:35:57.913Z,20.98
2019-04-25T09:36:57.914Z,21.06
2019-04-25T09:37:57.905Z,21.26
2019-04-25T09:38:57.918Z,21.32
2019-04-25T09:39:57.936Z,22.01
2019-04-25T09:40:57.975Z,22.09
2019-04-25T09:41:57.956Z,21.79
2019-04-25T09:42:57.966Z,21.27
2019-04-25T09:43:57.986Z,21.63
2019-04-25T09:44:57.994Z,21.19
2019-04-25T09:45:58.032Z,21.19
2019-04-25T09:46:58.026Z,21.50
2019-04-25T09:47:58.042Z,21.50
2019-04-25T09:48:58.045Z,21.51
2019-04-25T09:49:58.074Z,21.61
2019-04-25T09:50:58.101Z,21.42
2019-04-25T09:51:58.104Z,21.39
2019-04-25T09:52:58.101Z,21.39
2019-04-25T09:53:58.114Z,21.75
2019-04-25T09:54:58.124Z,21.56
2019-04-25T09:55:58.162Z,22.07
2019-04-25T09:56:58.154Z,22.37
2019-04-25T09:57:58.160Z,22.72
2019-04-25T09:58:58.173Z,22.87
2019-04-25T09:59:58.202Z,22.59
2019-04-25T10:00:58.226Z,22.64
2019-04-25T10:01:58.213Z,22.38
2019-04-25T10:02:58.244Z,22.29
2019-04-25T10:03:58.244Z,21.74
2019-04-25T10:04:58.254Z,21.98
2019-04-25T10:05:58.377Z,22.13
2019-04-25T10:06:58.306Z,22.69
2019-04-25T10:07:58.295Z,22.68
2019-04-25T10:08:58.322Z,22.47
2019-04-25T10:09:58.411Z,22.29
2019-04-25T10:10:58.361Z,22.01
2019-04-25T10:11:58.376Z,22.75
2019-04-25T10:12:58.365Z,22.78
2019-04-25T10:13:58.383Z,22.72
2019-04-25T10:14:58.393Z,22.44
2019-04-25T10:15:58.409Z,22.69
2019-04-25T10:16:58.451Z,22.53
2019-04-25T10:17:58.439Z,23.09
2019-04-25T10:18:58.452Z,22.96
2019-04-25T10:19:58.466Z,22.78
2019-04-25T10:20:58.481Z,23.24
2019-04-25T10:21:58.539Z,22.96
2019-04-25T10:22:58.515Z,23.20
2019-04-25T10:23:58.528Z,23.14
2019-04-25T10:25:00.667Z,22.82
2019-04-25T10:25:58.557Z,22.47
2019-04-25T10:26:58.598Z,22.86
2019-04-25T10:27:58.592Z,22.97
2019-04-25T10:28:58.617Z,22.84
2019-04-25T10:29:58.618Z,23.01
2019-04-25T10:30:58.630Z,23.04
2019-04-25T10:31:58.671Z,23.49
2019-04-25T10:32:58.661Z,24.14
2019-04-25T10:33:58.677Z,24.45
2019-04-25T10:34:58.692Z,23.90
2019-04-25T10:36:01.135Z,23.79
2019-04-25T10:36:58.755Z,23.22
2019-04-25T10:37:58.739Z,22.89
2019-04-25T10:39:07.646Z,23.17
2019-04-25T10:39:58.773Z,22.89
2019-04-25T10:40:58.785Z,23.29
2019-04-25T10:41:58.829Z,23.40
2019-04-25T10:42:58.824Z,23.67
2019-04-25T10:43:58.862Z,23.95
2019-04-25T10:44:58.853Z,23.77
2019-04-25T10:45:59.552Z,23.19
2019-04-25T10:46:58.907Z,23.52
2019-04-25T10:47:58.904Z,23.60
2019-04-25T10:48:59.654Z,23.94
2019-04-25T10:49:59.195Z,23.90
2019-04-25T10:50:58.944Z,24.07
2019-04-25T10:51:58.986Z,23.80
2019-04-25T10:52:58.975Z,23.87
2019-04-25T10:53:58.993Z,23.89
2019-04-25T10:54:59.005Z,23.85
2019-04-25T10:55:59.020Z,23.83
2019-04-25T10:56:59.111Z,23.53
2019-04-25T10:57:59.069Z,23.67
2019-04-25T10:58:59.074Z,23.65
2019-04-25T11:00:06.241Z,23.53
2019-04-25T11:00:59.101Z,23.80
2019-04-25T11:01:59.145Z,23.62
2019-04-25T11:02:59.139Z,23.64
2019-04-25T11:03:59.169Z,24.05
2019-04-25T11:04:59.185Z,24.14
2019-04-25T11:05:59.195Z,24.23
2019-04-25T11:06:59.220Z,23.95
2019-04-25T11:07:59.213Z,23.47
2019-04-25T11:08:59.241Z,23.87
2019-04-25T11:09:59.247Z,24.49
2019-04-25T11:10:59.258Z,23.98
2019-04-25T11:11:59.300Z,24.35
2019-04-25T11:12:59.292Z,24.41
2019-04-25T11:13:59.309Z,24.57
2019-04-25T11:14:59.322Z,24.14
2019-04-25T11:15:59.335Z,24.16
2019-04-25T11:16:59.400Z,23.75
2019-04-25T11:17:59.422Z,23.52
2019-04-25T11:18:59.415Z,23.39
2019-04-25T11:19:59.403Z,23.97
2019-04-25T11:20:59.423Z,24.42
2019-04-25T11:21:59.464Z,24.38
2019-04-25T11:22:59.448Z,24.67
2019-04-25T11:23:59.468Z,24.19
2019-04-25T11:24:59.486Z,24.56
2019-04-25T11:25:59.543Z,25.02
2019-04-25T11:26:59.546Z,24.80
2019-04-25T11:27:59.538Z,24.37
2019-04-25T11:28:59.581Z,24.10
2019-04-25T11:30:09.312Z,24.32
2019-04-25T11:30:59.585Z,24.14
2019-04-25T11:31:59.631Z,24.57
2019-04-25T11:32:59.617Z,24.57
2019-04-25T11:33:59.636Z,24.94
2019-04-25T11:34:59.710Z,25.10
2019-04-25T11:35:59.667Z,24.83
2019-04-25T11:36:59.764Z,24.87
2019-04-25T11:37:59.775Z,24.92
2019-04-25T11:38:59.717Z,25.20
2019-04-25T11:39:59.738Z,25.25
2019-04-25T11:40:59.751Z,25.00
2019-04-25T11:41:59.769Z,25.25
2019-04-25T11:42:59.845Z,25.53
2019-04-25T11:44:00.487Z,25.20
2019-04-25T11:45:00.552Z,24.92
2019-04-25T11:45:59.835Z,24.85
2019-04-25T11:46:59.849Z,24.29
2019-04-25T11:47:59.893Z,24.98
2019-04-25T11:48:59.916Z,25.38
2019-04-25T11:49:59.949Z,25.68
2019-04-25T11:50:59.929Z,25.53
2019-04-25T11:51:59.934Z,25.12
2019-04-25T11:53:00.922Z,25.46
2019-04-25T11:53:59.967Z,25.06
2019-04-25T11:54:59.983Z,24.92
2019-04-25T11:56:00.001Z,25.10
2019-04-25T11:57:00.016Z,25.06
2019-04-25T11:58:00.062Z,24.98
2019-04-25T11:59:00.058Z,24.94
2019-04-25T12:00:00.080Z,24.98
2019-04-25T12:01:00.093Z,25.53
2019-04-25T12:02:00.103Z,25.35
2019-04-25T12:03:00.141Z,25.49
2019-04-25T12:04:00.139Z,25.37
2019-04-25T12:05:00.221Z,25.47
2019-04-25T12:06:00.173Z,25.57
2019-04-25T12:07:00.199Z,25.90
2019-04-25T12:08:00.231Z,26.02
2019-04-25T12:09:00.270Z,26.01
2019-04-25T12:10:00.248Z,25.93
2019-04-25T12:11:00.381Z,25.53
2019-04-25T12:12:01.121Z,25.52
2019-04-25T12:13:01.134Z,25.22
2019-04-25T12:14:00.307Z,25.47
2019-04-25T12:15:00.319Z,25.83
2019-04-25T12:16:00.381Z,25.53
2019-04-25T12:17:00.362Z,25.80
2019-04-25T12:18:00.401Z,25.74
2019-04-25T12:19:00.403Z,25.93
2019-04-25T12:20:00.407Z,25.80
2019-04-25T12:21:00.422Z,25.27
2019-04-25T12:22:00.442Z,25.02
2019-04-25T12:23:08.412Z,25.59
2019-04-25T12:24:01.866Z,25.64
2019-04-25T12:25:00.497Z,25.47
2019-04-25T12:26:00.507Z,25.47
2019-04-25T12:27:00.526Z,25.84
2019-04-25T12:28:00.585Z,25.30
2019-04-25T12:29:04.206Z,25.12
2019-04-25T12:30:01.137Z,25.17
2019-04-25T12:31:00.641Z,25.15
2019-04-25T12:32:00.655Z,25.17
2019-04-25T12:33:00.653Z,25.99
2019-04-25T12:34:00.667Z,26.04
2019-04-25T12:35:00.659Z,25.86
2019-04-25T12:36:00.672Z,25.28
2019-04-25T12:37:00.704Z,25.27
2019-04-25T12:38:00.711Z,25.39
2019-04-25T12:39:01.072Z,25.37
2019-04-25T12:40:00.743Z,24.98
2019-04-25T12:41:00.765Z,25.20
2019-04-25T12:42:00.771Z,25.64
2019-04-25T12:43:00.785Z,25.35
2019-04-25T12:44:00.839Z,25.65
2019-04-25T12:45:00.818Z,25.83
2019-04-25T12:46:00.837Z,25.99
2019-04-25T12:47:00.853Z,26.05
2019-04-25T12:48:00.868Z,26.11
2019-04-25T12:49:00.916Z,26.09
2019-04-25T12:50:00.899Z,25.53
2019-04-25T12:51:00.911Z,25.79
2019-04-25T12:52:00.931Z,25.80
2019-04-25T12:53:00.947Z,26.02
2019-04-25T12:54:00.986Z,26.21